createdAt,value
2017-05-08T00:00:42.027Z,16
2017-05-08T00:10:41.958Z,18
2017-05-08T00:20:42.009Z,15
2017-05-08T00:30:41.994Z,12
2017-05-08T00:40:42.029Z,11
2017-05-08T00:50:42.039Z,17
2017-05-08T01:00:41.990Z,14
2017-05-08T01:10:42.178Z,12
2017-05-08T01:20:42.118Z,10
2017-05-08T01:30:42.162Z,9
2017-05-08T01:40:42.010Z,10
2017-05-08T01:50:42.021Z,7
2017-05-08T02:00:42.034Z,8
2017-05-08T02:10:42.070Z,8
2017-05-08T02:20:42.053Z,8
2017-05-08T02:30:42.055Z,5
2017-05-08T02:40:42.045Z,6
2017-05-08T02:50:42.146Z,10
2017-05-08T03:00:42.091Z,8
2017-05-08T03:10:42.157Z,7
2017-05-08T03:20:42.094Z,9
2017-05-08T03:30:42.182Z,6
2017-05-08T03:40:42.115Z,10
2017-05-08T03:50:42.129Z,10
2017-05-08T04:00:42.166Z,9
2017-05-08T04:10:42.197Z,8
2017-05-08T04:20:42.163Z,7
2017-05-08T04:30:42.142Z,8
2017-05-08T04:40:42.141Z,7
2017-05-08T04:50:42.292Z,11
2017-05-08T05:00:42.172Z,9
2017-05-08T05:10:42.178Z,10
2017-05-08T05:20:42.265Z,11
2017-05-08T05:30:42.216Z,16
2017-05-08T05:40:42.298Z,20
2017-05-08T05:50:42.195Z,17
2017-05-08T06:00:42.287Z,18
2017-05-08T06:10:42.241Z,19
2017-05-08T06:20:42.240Z,12
2017-05-08T06:30:42.280Z,10
2017-05-08T06:40:42.377Z,14
2017-05-08T06:50:42.297Z,8
2017-05-08T07:00:42.372Z,17
2017-05-08T07:10:42.300Z,19
2017-05-08T07:20:42.324Z,13
2017-05-08T07:30:42.510Z,13
2017-05-08T07:40:42.361Z,13
2017-05-08T07:50:42.634Z,10
2017-05-08T08:00:42.510Z,13
2017-05-08T08:10:42.345Z,16
2017-05-08T08:20:42.382Z,13
2017-05-08T08:30:42.430Z,11
2017-05-08T08:40:42.358Z,14
2017-05-08T08:50:42.650Z,11
2017-05-08T09:00:42.457Z,9
2017-05-08T09:10:42.522Z,9
2017-05-08T09:20:42.502Z,11
2017-05-08T09:30:42.700Z,9
2017-05-08T09:41:03.392Z,15
2017-05-08T09:50:55.664Z,7
2017-05-08T10:00:42.552Z,6
2017-05-08T10:10:42.571Z,6
2017-05-08T10:20:42.799Z,9
2017-05-08T10:30:42.502Z,7
2017-05-08T10:40:42.551Z,7
2017-05-08T10:50:42.475Z,10
2017-05-08T11:00:42.678Z,7
2017-05-08T11:10:42.595Z,9
2017-05-08T11:20:42.537Z,6
2017-05-08T11:30:43.644Z,9
2017-05-08T11:40:42.566Z,6
2017-05-08T11:50:43.782Z,8
2017-05-08T12:00:42.630Z,8
2017-05-08T12:10:42.590Z,6
2017-05-08T12:20:42.728Z,7
2017-05-08T12:30:42.662Z,6
2017-05-08T12:40:42.627Z,12
2017-05-08T12:50:42.661Z,6
2017-05-08T13:00:43.687Z,5
2017-05-08T13:10:42.706Z,9
2017-05-08T13:20:43.612Z,8
2017-05-08T13:30:42.656Z,8
2017-05-08T13:40:42.817Z,8
2017-05-08T13:50:43.605Z,10
2017-05-08T14:00:43.447Z,10
2017-05-08T14:10:42.852Z,10
2017-05-08T14:20:42.726Z,5
2017-05-08T14:30:42.944Z,6
2017-05-08T14:40:42.969Z,6
2017-05-08T14:50:42.770Z,6
2017-05-08T15:00:42.739Z,9
2017-05-08T15:10:42.779Z,6
2017-05-08T15:20:42.844Z,4
2017-05-08T15:30:42.794Z,5
2017-05-08T15:40:42.842Z,4
2017-05-08T15:50:42.866Z,4
2017-05-08T16:00:42.876Z,6
2017-05-08T16:10:42.967Z,4
2017-05-08T16:20:42.916Z,4
2017-05-08T16:30:42.944Z,3
2017-05-08T16:40:42.935Z,4
2017-05-08T16:50:43.045Z,4
2017-05-08T17:00:42.906Z,4
2017-05-08T17:10:42.899Z,4
2017-05-08T17:20:42.899Z,5
2017-05-08T17:30:42.916Z,6
2017-05-08T17:40:43.385Z,4
2017-05-08T17:50:42.925Z,4
2017-05-08T18:00:42.959Z,2
2017-05-08T18:10:42.989Z,5
2017-05-08T18:20:43.143Z,6
2017-05-08T18:30:42.974Z,5
2017-05-08T18:40:43.162Z,3
2017-05-08T18:50:43.008Z,4
2017-05-08T19:00:43.099Z,4
2017-05-08T19:10:43.048Z,5
2017-05-08T19:20:43.072Z,5
2017-05-08T19:30:43.037Z,3
2017-05-08T19:40:43.139Z,3
2017-05-08T19:50:43.055Z,5
2017-05-08T20:00:43.043Z,5
2017-05-08T20:10:43.111Z,3
2017-05-08T20:20:43.130Z,4
2017-05-08T20:30:43.266Z,3
2017-05-08T20:40:43.263Z,4
2017-05-08T20:50:43.301Z,3
2017-05-08T21:00:43.557Z,3
2017-05-08T21:10:44.295Z,3
2017-05-08T21:20:43.828Z,2
2017-05-08T21:30:43.415Z,2
2017-05-08T21:40:43.233Z,3
2017-05-08T21:50:43.502Z,4
2017-05-08T22:00:43.192Z,3
2017-05-08T22:10:43.248Z,5
2017-05-08T22:20:43.176Z,5
2017-05-08T22:30:43.297Z,4
2017-05-08T22:40:43.212Z,6
2017-05-08T22:50:43.316Z,5
2017-05-08T23:00:43.220Z,7
2017-05-08T23:10:43.193Z,5
2017-05-08T23:20:43.154Z,5
2017-05-08T23:30:43.206Z,7
2017-05-08T23:40:43.182Z,6
2017-05-08T23:50:43.301Z,6
